Time;durP1;ratioP1;P1;durP2;ratioP2;P2;SDS_P1;SDS_P2;PMS_P1;PMS_P2;Temp;Humidity;BMP_temperature;BMP_pressure;BME280_temperature;BME280_humidity;BME280_pressure;Samples;Min_cycle;Max_cycle;Signal;HPM_P1;HPM_P2
2022/01/04 00:02:09;;;;;;;23.98;5.38;;;7.20;96.70;;;;;;5141459;27;20034;-77
2022/01/04 00:04:34;;;;;;;36.45;10.60;;;7.20;96.80;;;;;;5158871;27;20041;-77
2022/01/04 00:07:00;;;;;;;28.27;5.75;;;7.30;96.70;;;;;;5158148;27;20486;-77
2022/01/04 00:09:26;;;;;;;21.90;4.75;;;7.30;96.80;;;;;;5157929;27;20039;-77
2022/01/04 00:14:18;;;;;;;21.20;4.57;;;7.40;97.00;;;;;;5158776;27;20048;-77
2022/01/04 00:16:44;;;;;;;27.88;5.00;;;7.50;96.90;;;;;;5158499;27;20042;-77
2022/01/04 00:19:10;;;;;;;24.77;4.40;;;7.50;96.80;;;;;;5141141;27;20038;-77
2022/01/04 00:21:37;;;;;;;25.10;4.80;;;7.50;96.90;;;;;;5158117;27;20054;-77
2022/01/04 00:24:04;;;;;;;23.65;4.60;;;7.50;97.00;;;;;;5158563;27;20046;-77
2022/01/04 00:26:30;;;;;;;23.48;5.25;;;7.50;97.00;;;;;;5158289;27;20037;-77
2022/01/04 00:28:56;;;;;;;33.97;5.55;;;7.60;96.90;;;;;;5158132;27;20034;-77
2022/01/04 00:31:22;;;;;;;22.90;5.25;;;7.60;96.80;;;;;;5158418;27;20034;-77
2022/01/04 00:33:49;;;;;;;31.35;7.65;;;7.50;96.80;;;;;;5140934;27;20048;-77
2022/01/04 00:36:14;;;;;;;27.13;5.45;;;7.60;96.80;;;;;;5157899;27;20042;-77
2022/01/04 00:38:40;;;;;;;30.20;5.30;;;7.50;97.10;;;;;;5140698;27;20053;-77
2022/01/04 00:41:06;;;;;;;26.42;5.25;;;7.50;97.10;;;;;;5158119;27;20046;-77
2022/01/04 00:43:32;;;;;;;27.10;5.97;;;7.50;97.10;;;;;;5140618;27;20124;-77
2022/01/04 00:45:59;;;;;;;32.38;7.28;;;7.50;97.10;;;;;;5157908;27;20038;-77
2022/01/04 00:50:52;;;;;;;34.22;8.05;;;7.50;97.20;;;;;;5157929;27;20482;-77
2022/01/04 00:53:18;;;;;;;26.25;6.38;;;7.50;97.30;;;;;;5157691;27;20509;-77
2022/01/04 00:55:44;;;;;;;33.50;8.57;;;7.50;97.30;;;;;;5157624;27;20557;-77
2022/01/04 00:58:09;;;;;;;32.83;9.02;;;7.40;97.30;;;;;;5157608;27;20046;-77
2022/01/04 01:00:36;;;;;;;28.23;6.80;;;7.50;97.40;;;;;;5157719;27;20064;-77
2022/01/04 01:03:02;;;;;;;33.10;9.05;;;7.40;97.40;;;;;;5157726;27;20459;-77
2022/01/04 01:05:27;;;;;;;37.85;11.73;;;7.50;97.20;;;;;;5157391;27;20124;-77
2022/01/04 01:07:54;;;;;;;42.05;15.82;;;7.40;97.30;;;;;;5157321;27;20137;-77
2022/01/04 01:12:46;;;;;;;32.85;9.82;;;7.40;97.30;;;;;;5157553;27;20039;-77
2022/01/04 01:15:12;;;;;;;38.53;15.23;;;7.40;97.30;;;;;;5157510;27;20489;-77
2022/01/04 01:17:38;;;;;;;34.20;9.80;;;7.40;97.20;;;;;;5157513;27;20034;-77
2022/01/04 01:20:06;;;;;;;33.60;9.07;;;7.40;97.10;;;;;;5157018;27;20472;-77
2022/01/04 01:22:31;;;;;;;34.35;8.13;;;7.40;97.40;;;;;;5157402;27;20120;-77
2022/01/04 01:24:57;;;;;;;33.70;7.20;;;7.30;97.40;;;;;;5157341;27;20516;-77
2022/01/04 01:27:23;;;;;;;34.10;7.57;;;7.40;97.70;;;;;;5157088;27;20038;-77
2022/01/04 01:29:48;;;;;;;37.65;9.80;;;7.40;97.90;;;;;;5157230;27;20034;-77
2022/01/04 01:32:14;;;;;;;33.83;8.13;;;7.40;97.40;;;;;;5157055;27;20124;-77
2022/01/04 01:34:41;;;;;;;27.83;6.90;;;7.40;97.40;;;;;;5157044;27;20041;-77
2022/01/04 01:37:08;;;;;;;31.38;9.10;;;7.40;97.40;;;;;;5157299;27;20061;-77
2022/01/04 01:39:33;;;;;;;30.45;6.38;;;7.50;97.60;;;;;;5140002;27;20393;-77
2022/01/04 01:41:59;;;;;;;29.23;7.28;;;7.50;97.60;;;;;;5139651;27;20042;-77
2022/01/04 01:44:25;;;;;;;34.97;11.18;;;7.50;97.50;;;;;;5156873;27;20038;-77
2022/01/04 01:46:51;;;;;;;37.15;10.48;;;7.50;97.50;;;;;;5156890;27;20071;-77
2022/01/04 01:49:17;;;;;;;34.13;7.53;;;7.50;97.40;;;;;;5139492;27;20038;-77
2022/01/04 01:51:44;;;;;;;35.78;10.95;;;7.50;97.60;;;;;;5156770;27;20046;-77
2022/01/04 01:54:09;;;;;;;34.47;8.48;;;7.50;97.50;;;;;;5156797;27;20053;-77
2022/01/04 01:56:35;;;;;;;35.15;8.55;;;7.50;97.50;;;;;;5156810;27;20030;-77
2022/01/04 01:59:01;;;;;;;44.67;13.90;;;7.60;97.60;;;;;;5156800;27;20037;-77
2022/01/04 02:01:26;;;;;;;45.92;9.60;;;7.60;97.50;;;;;;5139435;27;20086;-77
2022/01/04 02:03:52;;;;;;;39.42;9.65;;;7.50;97.70;;;;;;5156678;27;20039;-77
2022/01/04 02:06:18;;;;;;;40.08;17.67;;;7.60;97.70;;;;;;5156760;27;20045;-78
2022/01/04 02:08:44;;;;;;;39.30;10.82;;;7.60;97.50;;;;;;5156619;27;20049;-77
2022/01/04 02:11:11;;;;;;;32.72;8.68;;;7.60;97.40;;;;;;5139380;27;20090;-77
2022/01/04 02:13:37;;;;;;;40.72;10.43;;;7.60;97.50;;;;;;5156634;27;20034;-77
2022/01/04 02:16:03;;;;;;;39.67;14.10;;;7.60;97.60;;;;;;5156607;27;20036;-77
2022/01/04 02:18:29;;;;;;;42.40;13.32;;;7.60;97.50;;;;;;5156513;27;20042;-77
2022/01/04 02:20:55;;;;;;;35.38;10.52;;;7.60;97.40;;;;;;5156526;27;20058;-77
2022/01/04 02:23:21;;;;;;;42.78;11.65;;;7.60;97.50;;;;;;5156770;27;20050;-77
2022/01/04 02:25:48;;;;;;;36.00;12.45;;;7.60;97.60;;;;;;5156511;27;20125;-77
2022/01/04 02:28:18;;;;;;;34.30;10.82;;;7.60;97.50;;;;;;5156688;27;20087;-77
2022/01/04 02:30:44;;;;;;;39.28;15.02;;;7.60;97.50;;;;;;5157047;27;20094;-77
2022/01/04 02:33:10;;;;;;;40.22;12.05;;;7.60;97.70;;;;;;5160306;27;20038;-77
2022/01/04 02:35:36;;;;;;;32.90;12.07;;;7.60;97.50;;;;;;5160443;27;20327;-77
2022/01/04 02:38:03;;;;;;;39.58;12.38;;;7.60;97.50;;;;;;5160665;27;20477;-77
2022/01/04 02:40:29;;;;;;;37.83;12.50;;;7.60;97.60;;;;;;5126135;27;20042;-77
2022/01/04 02:42:55;;;;;;;37.95;9.80;;;7.60;97.50;;;;;;5160532;27;20042;-77
2022/01/04 02:45:22;;;;;;;34.20;10.18;;;7.60;97.50;;;;;;5143076;27;20038;-77
2022/01/04 02:47:48;;;;;;;44.97;10.95;;;7.60;97.60;;;;;;5160143;27;20049;-77
2022/01/04 02:50:14;;;;;;;35.33;10.85;;;7.60;97.60;;;;;;5142937;27;20034;-77
2022/01/04 02:52:39;;;;;;;41.30;11.43;;;7.60;97.50;;;;;;5160061;27;20082;-77
2022/01/04 02:55:16;;;;;;;40.72;9.93;;;7.60;97.60;;;;;;5159937;27;20070;-77
2022/01/04 02:57:42;;;;;;;35.28;10.50;;;7.60;97.70;;;;;;5160058;27;20038;-77
2022/01/04 03:00:11;;;;;;;35.50;8.95;;;7.60;97.70;;;;;;5160134;27;20399;-77
2022/01/04 03:02:37;;;;;;;37.38;9.30;;;7.60;97.70;;;;;;5159782;27;20500;-77
2022/01/04 03:05:04;;;;;;;46.63;11.27;;;7.70;97.50;;;;;;5160110;27;20046;-77
2022/01/04 03:07:29;;;;;;;43.15;11.40;;;7.70;97.60;;;;;;5159763;27;20074;-77
2022/01/04 03:09:55;;;;;;;41.20;10.75;;;7.70;97.50;;;;;;5159796;27;20070;-77
2022/01/04 03:12:22;;;;;;;34.75;8.63;;;7.70;97.40;;;;;;5160043;27;20030;-77
2022/01/04 03:14:47;;;;;;;30.13;8.65;;;7.80;97.50;;;;;;5142306;27;20121;-77
2022/01/04 03:17:13;;;;;;;37.17;7.85;;;7.70;97.60;;;;;;5142400;27;20121;-77
2022/01/04 03:19:39;;;;;;;33.17;8.65;;;7.70;97.50;;;;;;5159774;27;20060;-77
2022/01/04 03:22:05;;;;;;;37.90;9.15;;;7.80;97.60;;;;;;5159083;27;20592;-77
2022/01/04 03:24:31;;;;;;;32.53;7.93;;;7.80;97.70;;;;;;5159184;27;20117;-77
2022/01/04 03:26:56;;;;;;;31.23;8.02;;;7.80;97.60;;;;;;5141951;27;20042;-77
2022/01/04 03:29:23;;;;;;;33.03;7.95;;;7.80;97.70;;;;;;5159036;27;20034;-77
2022/01/04 03:31:50;;;;;;;44.05;9.13;;;7.80;97.60;;;;;;5159537;27;20042;-77
2022/01/04 03:34:16;;;;;;;40.63;8.27;;;7.70;97.70;;;;;;5159583;27;20044;-77
2022/01/04 03:36:42;;;;;;;28.55;8.73;;;7.70;97.70;;;;;;5159195;27;20552;-77
2022/01/04 03:39:10;;;;;;;38.63;9.30;;;7.80;97.70;;;;;;5125098;27;20126;-77
2022/01/04 03:41:39;;;;;;;44.58;9.80;;;7.70;97.70;;;;;;5159330;27;20434;-77
2022/01/04 03:44:06;;;;;;;43.75;10.35;;;7.60;97.60;;;;;;5159326;27;20049;-77
2022/01/04 03:46:32;;;;;;;40.28;9.30;;;7.60;97.70;;;;;;5141800;27;20121;-77
2022/01/04 03:48:58;;;;;;;27.33;9.35;;;7.60;97.70;;;;;;5158718;27;20167;-77
2022/01/04 03:51:23;;;;;;;32.53;8.48;;;7.60;97.70;;;;;;5159175;27;20121;-77
2022/01/04 03:53:49;;;;;;;45.95;10.77;;;7.60;97.60;;;;;;5158877;27;20520;-77
2022/01/04 03:56:15;;;;;;;39.45;10.38;;;7.60;97.70;;;;;;5159071;27;20381;-77
2022/01/04 03:58:41;;;;;;;39.85;9.80;;;7.50;97.80;;;;;;5158817;27;20504;-77
2022/01/04 04:01:07;;;;;;;38.00;8.38;;;7.50;97.80;;;;;;5158711;27;20124;-77
2022/01/04 04:03:33;;;;;;;40.85;9.18;;;7.50;97.80;;;;;;5158984;27;20038;-77
2022/01/04 04:05:59;;;;;;;35.15;10.88;;;7.50;97.70;;;;;;5141670;27;20582;-77
2022/01/04 04:08:24;;;;;;;41.47;9.02;;;7.50;97.80;;;;;;5141196;27;20401;-77
2022/01/04 04:10:50;;;;;;;41.88;8.77;;;7.50;97.90;;;;;;5158843;27;20034;-77
2022/01/04 04:13:16;;;;;;;28.83;9.40;;;7.50;97.80;;;;;;5141329;27;20069;-77
2022/01/04 04:15:43;;;;;;;37.00;9.35;;;7.50;97.80;;;;;;5141221;27;20080;-77
2022/01/04 04:18:10;;;;;;;40.22;8.18;;;7.50;97.90;;;;;;5141111;27;20050;-77
2022/01/04 04:20:37;;;;;;;31.73;9.52;;;7.50;97.80;;;;;;5158072;27;20488;-77
2022/01/04 04:23:04;;;;;;;34.42;8.75;;;7.50;97.80;;;;;;5158626;27;20371;-77
2022/01/04 04:25:30;;;;;;;34.35;9.13;;;7.50;97.90;;;;;;5141194;27;20057;-77
2022/01/04 04:27:56;;;;;;;40.72;8.98;;;7.50;98.00;;;;;;5141262;27;20386;-77
2022/01/04 04:30:22;;;;;;;42.47;8.57;;;7.50;97.90;;;;;;5158184;27;20030;-77
2022/01/04 04:32:48;;;;;;;35.20;8.13;;;7.50;97.90;;;;;;5140814;27;20068;-77
2022/01/04 04:35:14;;;;;;;33.80;8.88;;;7.50;97.90;;;;;;5158046;27;20036;-77
2022/01/04 04:37:40;;;;;;;35.25;7.82;;;7.50;98.00;;;;;;5158295;27;20042;-77
2022/01/04 04:40:07;;;;;;;35.08;8.05;;;7.50;97.90;;;;;;5123703;27;20089;-77
2022/01/04 04:42:33;;;;;;;35.67;7.65;;;7.50;97.80;;;;;;5140561;27;20049;-77
2022/01/04 04:44:59;;;;;;;39.13;10.10;;;7.50;98.00;;;;;;5140622;27;20045;-77
2022/01/04 04:47:25;;;;;;;39.88;9.07;;;7.50;97.90;;;;;;5157805;27;20078;-77
2022/01/04 04:49:52;;;;;;;31.85;7.43;;;7.50;98.00;;;;;;5157714;27;20077;-77
2022/01/04 04:52:18;;;;;;;27.45;6.80;;;7.60;97.80;;;;;;5157901;27;20042;-77
2022/01/04 04:54:44;;;;;;;28.00;6.82;;;7.60;97.80;;;;;;5139991;27;20504;-77
2022/01/04 04:57:09;;;;;;;26.52;6.50;;;7.70;97.80;;;;;;5157619;27;20049;-77
2022/01/04 04:59:35;;;;;;;36.83;7.93;;;7.70;97.70;;;;;;5157611;27;20034;-77
2022/01/04 05:02:01;;;;;;;31.90;7.65;;;7.60;97.80;;;;;;5123173;27;20050;-77
2022/01/04 05:04:27;;;;;;;27.15;6.85;;;7.70;97.80;;;;;;5157821;27;20065;-77
2022/01/04 05:06:53;;;;;;;32.78;6.90;;;7.70;97.80;;;;;;5140202;27;20114;-77
2022/01/04 05:09:19;;;;;;;34.03;6.55;;;7.70;97.80;;;;;;5157385;27;20126;-77
2022/01/04 05:11:45;;;;;;;29.10;5.78;;;7.80;97.80;;;;;;5140322;27;20038;-77
2022/01/04 05:14:11;;;;;;;36.97;7.90;;;7.70;97.90;;;;;;5157658;27;20366;-77
2022/01/04 05:16:37;;;;;;;29.63;6.63;;;7.70;97.90;;;;;;5140000;27;20041;-77
2022/01/04 05:19:02;;;;;;;24.40;6.53;;;7.70;97.90;;;;;;5122926;27;20098;-77
2022/01/04 05:21:28;;;;;;;32.80;6.97;;;7.70;97.80;;;;;;5157228;27;20061;-77
2022/01/04 05:23:54;;;;;;;27.63;6.22;;;7.70;97.90;;;;;;5139925;27;20038;-77
2022/01/04 05:26:21;;;;;;;23.30;6.60;;;7.70;97.90;;;;;;5140013;27;20066;-77
2022/01/04 05:28:47;;;;;;;29.30;6.43;;;7.70;97.90;;;;;;5157228;27;20042;-77
2022/01/04 05:31:13;;;;;;;27.40;6.10;;;7.70;97.90;;;;;;5157291;27;20477;-77
2022/01/04 05:33:40;;;;;;;27.77;5.97;;;7.80;97.70;;;;;;5157073;27;20038;-77
2022/01/04 05:36:05;;;;;;;32.55;7.43;;;7.80;97.70;;;;;;5139738;27;20485;-77
2022/01/04 05:38:32;;;;;;;37.20;6.55;;;7.80;97.60;;;;;;5157262;27;20045;-77
2022/01/04 05:40:57;;;;;;;34.20;7.85;;;7.70;97.70;;;;;;5157156;27;20034;-77
2022/01/04 05:43:23;;;;;;;27.63;7.15;;;7.70;97.80;;;;;;5156940;27;20531;-77
2022/01/04 05:45:49;;;;;;;34.47;7.13;;;7.70;97.80;;;;;;5139717;27;20409;-77
2022/01/04 05:48:18;;;;;;;18.90;5.22;;;7.70;97.70;;;;;;5122454;27;20121;-77
2022/01/04 05:50:44;;;;;;;27.55;6.03;;;7.70;97.70;;;;;;5157176;27;20048;-77
2022/01/04 05:53:10;;;;;;;23.00;4.82;;;7.70;97.60;;;;;;5156791;27;20038;-77
2022/01/04 05:55:35;;;;;;;21.38;5.22;;;7.80;97.70;;;;;;5157052;27;20033;-77
2022/01/04 05:58:01;;;;;;;25.55;4.95;;;7.80;97.60;;;;;;5157329;27;20477;-77
2022/01/04 06:00:27;;;;;;;17.98;4.03;;;7.80;97.60;;;;;;5156686;27;20500;-77
2022/01/04 06:02:52;;;;;;;19.33;4.18;;;7.80;97.30;;;;;;5156614;27;20034;-77
2022/01/04 06:05:18;;;;;;;21.65;3.92;;;7.70;97.20;;;;;;5156706;27;20045;-77
2022/01/04 06:07:44;;;;;;;16.55;3.10;;;7.80;97.10;;;;;;5161019;27;20080;-77
2022/01/04 06:10:11;;;;;;;23.83;4.10;;;7.80;97.00;;;;;;5126399;27;20067;-77
2022/01/04 06:15:08;;;;;;;25.75;4.30;;;7.70;96.90;;;;;;5143950;27;20043;-77
2022/01/04 06:17:36;;;;;;;26.33;4.70;;;7.70;97.00;;;;;;5160943;27;20470;-77
2022/01/04 06:20:08;;;;;;;21.38;4.60;;;7.70;96.90;;;;;;5160833;27;20312;-77
2022/01/04 06:22:34;;;;;;;25.02;5.65;;;7.70;97.20;;;;;;5160468;27;20383;-77
2022/01/04 06:25:01;;;;;;;18.70;5.47;;;7.70;97.10;;;;;;5160679;27;20041;-77
2022/01/04 06:27:27;;;;;;;25.20;5.80;;;7.70;97.20;;;;;;5143724;27;20034;-77
2022/01/04 06:29:53;;;;;;;19.38;4.88;;;7.70;97.20;;;;;;5160813;27;20590;-77
2022/01/04 06:32:18;;;;;;;23.45;5.18;;;7.70;97.20;;;;;;5143150;27;20034;-77
2022/01/04 06:34:45;;;;;;;20.73;5.07;;;7.70;97.20;;;;;;5143320;27;20038;-77
2022/01/04 06:37:12;;;;;;;24.67;4.53;;;7.70;97.10;;;;;;5160435;27;20038;-77
2022/01/04 06:39:37;;;;;;;29.70;5.35;;;7.80;97.10;;;;;;5143128;27;20042;-77
2022/01/04 06:42:04;;;;;;;19.13;5.60;;;7.70;97.20;;;;;;5160174;27;20041;-77
2022/01/04 06:44:30;;;;;;;23.08;4.30;;;7.70;97.20;;;;;;5160595;27;20042;-77
2022/01/04 06:46:56;;;;;;;24.73;6.18;;;7.70;97.20;;;;;;5160284;27;20088;-77
2022/01/04 06:49:23;;;;;;;23.92;4.93;;;7.70;97.20;;;;;;5160085;27;20042;-77
2022/01/04 06:51:49;;;;;;;21.90;5.53;;;7.70;97.30;;;;;;5160133;27;20034;-77
2022/01/04 06:54:17;;;;;;;17.98;5.43;;;7.70;97.20;;;;;;5160139;27;20034;-77
2022/01/04 06:56:44;;;;;;;21.23;4.70;;;7.70;97.20;;;;;;5160232;27;20045;-78
2022/01/04 06:59:10;;;;;;;26.92;5.13;;;7.70;97.30;;;;;;5160279;27;20050;-78
2022/01/04 07:01:36;;;;;;;28.70;5.10;;;7.60;97.30;;;;;;5159961;27;20129;-77
2022/01/04 07:04:03;;;;;;;32.50;5.28;;;7.70;97.30;;;;;;5159827;27;20038;-78
2022/01/04 07:06:29;;;;;;;25.30;4.90;;;7.60;97.40;;;;;;5142863;27;20046;-77
2022/01/04 07:08:55;;;;;;;23.73;6.05;;;7.60;97.40;;;;;;5159734;27;20042;-77
2022/01/04 07:11:21;;;;;;;24.75;5.03;;;7.60;97.40;;;;;;5142398;27;20041;-77
2022/01/04 07:13:47;;;;;;;26.20;5.68;;;7.60;97.40;;;;;;5142825;27;20038;-77
2022/01/04 07:16:13;;;;;;;17.75;5.10;;;7.70;97.50;;;;;;5159833;27;20498;-78
2022/01/04 07:18:38;;;;;;;18.10;4.22;;;7.70;97.30;;;;;;5159659;27;20069;-77
2022/01/04 07:21:04;;;;;;;18.00;5.13;;;7.60;97.20;;;;;;5159290;27;20577;-77
2022/01/04 07:23:31;;;;;;;20.80;4.80;;;7.60;97.20;;;;;;5142647;27;20046;-78
2022/01/04 07:25:56;;;;;;;28.23;6.25;;;7.60;97.30;;;;;;5159547;27;20034;-77
2022/01/04 07:28:23;;;;;;;26.00;5.10;;;7.60;97.30;;;;;;5159451;27;20049;-77
2022/01/04 07:30:48;;;;;;;26.60;5.38;;;7.60;97.30;;;;;;5142100;27;20121;-77
2022/01/04 07:33:16;;;;;;;29.95;6.28;;;7.60;97.20;;;;;;5159121;27;20066;-78
2022/01/04 07:35:45;;;;;;;25.67;5.07;;;7.60;97.40;;;;;;5159587;27;20419;-78
2022/01/04 07:38:11;;;;;;;28.33;5.80;;;7.60;97.40;;;;;;5125560;27;20371;-77
2022/01/04 07:40:37;;;;;;;33.55;5.72;;;7.60;97.40;;;;;;5141992;27;20042;-77
2022/01/04 07:43:03;;;;;;;22.15;5.30;;;7.60;97.30;;;;;;5159089;27;20454;-78
2022/01/04 07:45:31;;;;;;;30.20;6.25;;;7.50;97.30;;;;;;5158873;27;20100;-77
2022/01/04 07:47:57;;;;;;;28.77;5.93;;;7.50;97.40;;;;;;5158925;27;20049;-79
2022/01/04 07:50:23;;;;;;;28.48;6.05;;;7.50;97.40;;;;;;5159310;27;20038;-78
2022/01/04 07:52:49;;;;;;;26.60;5.90;;;7.50;97.40;;;;;;5158947;27;20097;-79
2022/01/04 07:55:16;;;;;;;31.10;6.80;;;7.50;97.50;;;;;;5158816;27;20066;-78
2022/01/04 07:57:42;;;;;;;23.80;5.40;;;7.50;97.40;;;;;;5141647;27;20097;-81
2022/01/04 08:00:09;;;;;;;29.73;5.95;;;7.50;97.30;;;;;;5141611;27;20066;-78
2022/01/04 08:02:35;;;;;;;23.52;4.72;;;7.40;97.30;;;;;;5158570;27;20040;-79
2022/01/04 08:05:01;;;;;;;27.15;5.85;;;7.40;97.40;;;;;;5158818;27;20030;-79
2022/01/04 08:07:27;;;;;;;28.40;5.85;;;7.40;97.40;;;;;;5124320;27;20038;-79
2022/01/04 08:09:53;;;;;;;29.80;6.68;;;7.40;97.30;;;;;;5158598;27;20450;-79
2022/01/04 08:12:19;;;;;;;15.90;3.47;;;7.30;97.30;;;;;;5141359;27;20041;-79
2022/01/04 08:14:45;;;;;;;19.15;11.10;;;7.50;97.20;;;;;;5158737;27;20478;-79
2022/01/04 08:17:11;;;;;;;12.00;6.95;;;7.40;96.60;;;;;;5158592;27;20481;-79
2022/01/04 08:19:37;;;;;;;11.20;8.50;;;7.30;96.60;;;;;;5158783;27;20042;-79
2022/01/04 08:22:04;;;;;;;11.98;3.85;;;7.10;96.70;;;;;;5158013;27;20434;-78
2022/01/04 08:24:29;;;;;;;21.83;13.63;;;7.10;96.80;;;;;;5158378;27;20058;-78
2022/01/04 08:26:58;;;;;;;11.90;8.10;;;7.00;96.90;;;;;;5158349;27;20111;-78
2022/01/04 08:29:24;;;;;;;8.63;4.75;;;7.00;96.90;;;;;;5157234;27;20082;-79
2022/01/04 08:31:50;;;;;;;13.85;7.43;;;7.00;97.10;;;;;;5158023;27;20121;-78
2022/01/04 08:34:16;;;;;;;5.72;3.05;;;7.00;97.10;;;;;;5158034;27;20113;-77
2022/01/04 08:36:42;;;;;;;9.25;3.47;;;6.90;97.00;;;;;;5156905;27;20038;-77
2022/01/04 08:39:14;;;;;;;9.40;6.47;;;6.90;97.00;;;;;;5140679;27;20724;-77
2022/01/04 08:41:41;;;;;;;7.97;4.88;;;6.80;97.00;;;;;;5157828;27;20042;-75
2022/01/04 08:44:07;;;;;;;8.40;2.80;;;6.80;97.00;;;;;;5157866;27;20045;-77
2022/01/04 08:46:35;;;;;;;3.92;2.25;;;6.80;96.80;;;;;;5157640;27;20049;-76
2022/01/04 08:49:02;;;;;;;8.85;4.03;;;6.80;96.60;;;;;;5157903;27;20106;-77
2022/01/04 08:51:28;;;;;;;7.70;2.28;;;6.70;96.40;;;;;;5139746;27;20034;-78
2022/01/04 08:53:54;;;;;;;4.47;2.72;;;6.70;96.40;;;;;;5157321;27;20039;-77
2022/01/04 08:56:19;;;;;;;7.60;2.03;;;6.60;96.40;;;;;;5157714;27;20121;-77
2022/01/04 08:58:45;;;;;;;5.35;1.95;;;6.60;96.40;;;;;;5157591;27;20102;-77
2022/01/04 09:01:11;;;;;;;5.28;1.13;;;6.50;96.40;;;;;;5139928;27;20049;-77
2022/01/04 09:03:37;;;;;;;3.38;1.13;;;6.50;96.50;;;;;;5157071;27;20061;-77
2022/01/04 09:06:02;;;;;;;4.78;1.15;;;6.50;96.50;;;;;;5157284;27;20031;-77
2022/01/04 09:08:28;;;;;;;4.07;1.25;;;6.50;96.50;;;;;;5123120;27;20038;-78
2022/01/04 09:10:54;;;;;;;6.68;1.77;;;6.50;96.50;;;;;;5157350;27;20034;-76
2022/01/04 09:13:22;;;;;;;12.32;1.95;;;6.50;96.40;;;;;;5157241;27;20048;-78
2022/01/04 09:18:51;;;;;;;8.20;1.55;;;6.50;96.40;;;;;;5157421;27;20053;-78
2022/01/04 09:21:28;;;;;;;14.80;6.53;;;6.50;96.20;;;;;;5153885;27;20051;-77
2022/01/04 09:23:56;;;;;;;51.38;37.85;;;6.50;96.20;;;;;;5153531;27;20107;-78
2022/01/04 09:26:23;;;;;;;27.45;21.17;;;6.50;96.10;;;;;;5136639;27;20038;-77
2022/01/04 09:28:49;;;;;;;8.68;4.40;;;6.50;95.90;;;;;;5153945;27;20106;-78
2022/01/04 09:31:15;;;;;;;7.43;4.35;;;6.50;95.90;;;;;;5136859;27;20431;-78
2022/01/04 09:33:42;;;;;;;11.10;2.50;;;6.40;95.90;;;;;;5136349;27;20071;-78
2022/01/04 09:36:08;;;;;;;6.72;4.18;;;6.40;96.00;;;;;;5153350;27;20118;-78
2022/01/04 09:38:34;;;;;;;10.93;8.80;;;6.40;96.00;;;;;;5136207;27;20039;-77
2022/01/04 09:41:00;;;;;;;6.22;2.90;;;6.50;96.10;;;;;;5136296;27;20065;-77
2022/01/04 09:43:26;;;;;;;3.30;1.65;;;6.50;96.00;;;;;;5153518;27;20046;-78
2022/01/04 09:45:52;;;;;;;50.35;39.28;;;6.50;95.60;;;;;;5136525;27;20046;-78
2022/01/04 09:48:19;;;;;;;61.38;55.10;;;6.40;95.50;;;;;;5153146;27;20487;-77
2022/01/04 09:50:47;;;;;;;32.97;29.77;;;6.30;95.40;;;;;;5136156;27;20497;-77
2022/01/04 09:53:19;;;;;;;10.63;9.63;;;6.30;95.60;;;;;;5153498;27;20504;-78
2022/01/04 09:55:51;;;;;;;11.18;10.02;;;6.20;95.50;;;;;;5153453;27;20034;-78
2022/01/04 09:58:19;;;;;;;109.10;74.45;;;6.20;95.50;;;;;;5153314;27;20121;-78
2022/01/04 10:00:46;;;;;;;131.63;74.68;;;6.10;95.40;;;;;;5153195;27;20451;-78
2022/01/04 10:03:15;;;;;;;315.35;199.98;;;6.10;95.40;;;;;;5153173;27;20108;-77
2022/01/04 10:05:41;;;;;;;270.02;151.38;;;6.10;95.40;;;;;;5153302;27;20084;-78
2022/01/04 10:08:09;;;;;;;311.80;226.90;;;6.10;95.40;;;;;;5153275;27;20034;-78
2022/01/04 10:10:35;;;;;;;54.78;49.20;;;6.10;95.50;;;;;;5153488;27;20123;-78
2022/01/04 10:13:05;;;;;;;15.07;13.48;;;6.10;95.50;;;;;;5135689;27;20042;-78
2022/01/04 10:15:34;;;;;;;4.43;3.88;;;6.00;95.50;;;;;;5153346;27;20424;-77
2022/01/04 10:18:13;;;;;;;25.42;23.17;;;6.00;95.50;;;;;;5152978;27;20080;-77
2022/01/04 10:20:45;;;;;;;14.40;13.02;;;6.00;95.40;;;;;;5139053;27;20064;-77
2022/01/04 10:23:13;;;;;;;6.78;5.18;;;6.00;95.40;;;;;;5139341;27;20442;-78
2022/01/04 10:25:39;;;;;;;8.60;7.88;;;6.10;95.20;;;;;;5156725;27;20038;-78
2022/01/04 10:28:05;;;;;;;17.08;15.68;;;6.00;95.00;;;;;;5156531;27;20053;-78
2022/01/04 10:30:32;;;;;;;7.57;3.33;;;6.00;94.90;;;;;;5156160;27;20082;-78
2022/01/04 10:33:13;;;;;;;5.45;1.88;;;5.90;94.60;;;;;;5156341;27;20037;-77
2022/01/04 10:35:42;;;;;;;7.45;6.78;;;5.90;94.40;;;;;;5157109;27;20125;-77
2022/01/04 10:38:23;;;;;;;25.67;23.10;;;5.70;93.70;;;;;;5139839;27;20042;-78
2022/01/04 10:41:05;;;;;;;36.97;33.22;;;5.70;93.80;;;;;;5157207;27;20042;-79
2022/01/04 10:43:36;;;;;;;12.30;7.45;;;5.60;93.50;;;;;;5156542;27;20120;-77
2022/01/04 10:46:02;;;;;;;32.08;29.20;;;5.60;93.50;;;;;;5156651;27;20044;-78
2022/01/04 10:48:36;;;;;;;21.25;18.67;;;5.70;93.80;;;;;;5137097;27;20042;-78
2022/01/04 10:51:06;;;;;;;6.80;2.65;;;5.70;93.80;;;;;;5136747;27;20038;-77
2022/01/04 10:53:40;;;;;;;11.70;5.60;;;5.70;93.60;;;;;;5158736;27;20069;-77
2022/01/04 10:56:12;;;;;;;84.00;75.47;;;5.70;93.60;;;;;;5141613;27;20034;-78
2022/01/04 10:58:40;;;;;;;16.83;2.85;;;5.70;93.40;;;;;;5141951;27;20125;-78
2022/01/04 11:01:09;;;;;;;16.98;13.75;;;5.70;92.50;;;;;;5159791;27;20042;-77
2022/01/04 11:03:37;;;;;;;26.30;18.83;;;5.80;92.10;;;;;;5160238;27;20073;-78
2022/01/04 11:06:14;;;;;;;36.42;29.40;;;5.70;91.90;;;;;;5159913;27;20067;-77
2022/01/04 11:08:41;;;;;;;9.80;4.93;;;5.70;91.50;;;;;;5159690;27;20041;-78
2022/01/04 11:11:07;;;;;;;21.02;17.52;;;5.80;91.10;;;;;;5159747;27;20034;-77
2022/01/04 11:13:33;;;;;;;7.45;3.55;;;5.80;90.80;;;;;;5159669;27;20093;-78
2022/01/04 11:16:01;;;;;;;13.95;9.43;;;5.90;90.50;;;;;;5159163;27;20038;-78
2022/01/04 11:18:27;;;;;;;5.50;2.33;;;5.90;89.90;;;;;;5158962;27;20166;-77
2022/01/04 11:20:54;;;;;;;7.40;1.67;;;5.90;89.60;;;;;;5142039;27;20058;-77
2022/01/04 11:23:33;;;;;;;8.05;3.85;;;5.90;88.90;;;;;;5142239;27;20046;-77
2022/01/04 11:26:00;;;;;;;12.40;10.05;;;5.90;88.60;;;;;;5142284;27;20065;-77
2022/01/04 11:28:27;;;;;;;8.27;2.65;;;6.00;88.20;;;;;;5142144;27;20046;-78
2022/01/04 11:31:22;;;;;;;55.25;36.38;;;5.90;88.40;;;;;;5159328;27;20038;-77
2022/01/04 11:33:59;;;;;;;10.57;5.38;;;6.00;88.90;;;;;;5142191;27;20038;-76
2022/01/04 11:36:27;;;;;;;43.97;24.27;;;6.00;88.80;;;;;;5159345;27;20091;-77
2022/01/04 11:38:53;;;;;;;37.47;20.83;;;6.00;88.70;;;;;;5159287;27;20042;-77
2022/01/04 11:41:43;;;;;;;157.27;103.43;;;6.10;88.10;;;;;;5158961;27;20046;-77
2022/01/04 11:44:18;;;;;;;35.90;22.38;;;6.10;88.00;;;;;;5159057;27;20402;-78
2022/01/04 11:46:43;;;;;;;;;;;6.10;88.20;;;;;;5159321;27;20040;-78
2022/01/04 11:49:12;;;;;;;34.78;18.00;;;6.10;88.00;;;;;;5159117;27;20020;-77
2022/01/04 11:51:40;;;;;;;7.03;2.38;;;6.10;88.00;;;;;;5141302;27;20076;-77
2022/01/04 11:54:26;;;;;;;8.18;4.43;;;6.20;87.60;;;;;;5158903;27;20041;-76
2022/01/04 11:57:18;;;;;;;28.38;19.90;;;6.30;87.40;;;;;;5159025;27;20446;-77
2022/01/04 11:59:56;;;;;;;30.67;24.23;;;6.30;87.50;;;;;;5144960;27;20125;-76
2022/01/04 12:02:32;;;;;;;12.80;6.40;;;6.30;86.80;;;;;;5158821;27;20069;-77
2022/01/04 12:05:20;;;;;;;9.07;4.47;;;6.30;86.70;;;;;;5157619;27;20042;-77
2022/01/04 12:07:48;;;;;;;11.85;3.22;;;6.30;86.10;;;;;;5158802;27;20106;-77
2022/01/04 12:10:20;;;;;;;12.80;3.80;;;6.20;86.00;;;;;;5158674;27;20038;-76
2022/01/04 12:12:56;;;;;;;7.97;2.63;;;6.20;86.50;;;;;;5158441;27;20045;-77
2022/01/04 12:15:50;;;;;;;31.80;16.90;;;6.20;86.70;;;;;;5157904;27;20038;-76
2022/01/04 12:18:22;;;;;;;10.77;2.03;;;6.10;87.20;;;;;;5148633;27;20106;-76
2022/01/04 12:20:50;;;;;;;9.55;2.60;;;6.10;87.00;;;;;;5140943;27;20395;-77
2022/01/04 12:23:31;;;;;;;8.35;2.03;;;6.00;86.80;;;;;;5158040;27;20046;-78
2022/01/04 12:26:06;;;;;;;10.85;1.67;;;5.90;87.30;;;;;;5158351;27;20569;-76
2022/01/04 12:28:43;;;;;;;3.75;1.48;;;5.80;88.00;;;;;;5158063;27;20034;-76
2022/01/04 12:31:18;;;;;;;6.03;1.42;;;5.80;89.00;;;;;;5158312;27;20053;-78
2022/01/04 12:34:13;;;;;;;4.68;1.60;;;5.70;89.00;;;;;;5153487;27;20034;-77
2022/01/04 12:36:41;;;;;;;6.72;1.55;;;5.70;89.20;;;;;;5067476;27;20107;-77
2022/01/04 12:39:18;;;;;;;6.78;1.30;;;5.60;89.30;;;;;;5141211;27;20504;-77
2022/01/04 12:41:46;;;;;;;10.88;2.53;;;5.70;89.30;;;;;;5157876;27;20039;-77
2022/01/04 12:44:20;;;;;;;6.03;1.20;;;5.70;89.00;;;;;;5157858;27;20182;-78
2022/01/04 12:46:47;;;;;;;6.80;1.35;;;5.70;88.90;;;;;;5158134;27;20097;-77
2022/01/04 12:49:15;;;;;;;5.43;1.55;;;5.70;88.20;;;;;;5157837;27;20049;-77
2022/01/04 12:51:53;;;;;;;4.25;1.23;;;5.70;88.00;;;;;;5158072;27;20038;-77
2022/01/04 12:54:30;;;;;;;3.40;0.93;;;5.70;87.70;;;;;;5140264;27;20041;-78
2022/01/04 12:57:05;;;;;;;7.10;1.40;;;5.70;87.50;;;;;;5156571;27;20030;-78
2022/01/04 12:59:33;;;;;;;6.10;2.13;;;5.70;87.60;;;;;;5157738;27;20042;-78
2022/01/04 13:02:10;;;;;;;9.45;4.75;;;5.80;87.80;;;;;;5140183;27;20516;-78